Time;durP1;ratioP1;P1;durP2;ratioP2;P2;SDS_P1;SDS_P2;PMS_P1;PMS_P2;Temp;Humidity;BMP_temperature;BMP_pressure;BME280_temperature;BME280_humidity;BME280_pressure;Samples;Min_cycle;Max_cycle;Signal;HPM_P1;HPM_P2
2022/07/27 00:00:00;;;;;;;10.87;7.10;;;22.30;99.90;;;;;;6278063;28;20232;-67
2022/07/27 00:03:03;;;;;;;7.30;6.70;;;22.20;99.90;;;;;;6278005;28;20246;-67
2022/07/27 00:06:07;;;;;;;7.23;6.63;;;22.20;99.90;;;;;;6278265;28;20223;-67
2022/07/27 00:09:10;;;;;;;7.97;7.37;;;22.20;99.90;;;;;;6278145;28;20232;-67
2022/07/27 00:12:15;;;;;;;7.27;6.70;;;22.20;99.90;;;;;;6277654;28;20569;-67
2022/07/27 00:15:18;;;;;;;8.03;7.23;;;22.20;99.90;;;;;;6277970;28;20227;-68
2022/07/27 00:18:21;;;;;;;7.03;6.47;;;22.10;99.90;;;;;;6277852;28;20251;-67
2022/07/27 00:21:25;;;;;;;6.90;6.30;;;22.10;99.90;;;;;;6277740;28;20244;-67
2022/07/27 00:24:28;;;;;;;7.50;6.87;;;22.10;99.90;;;;;;6277633;28;20242;-67
2022/07/27 00:27:33;;;;;;;7.70;7.00;;;22.00;99.90;;;;;;6277370;28;20587;-67
2022/07/27 00:30:36;;;;;;;7.50;6.83;;;21.90;99.90;;;;;;6277333;28;20563;-67
2022/07/27 00:33:39;;;;;;;7.60;6.97;;;21.90;99.90;;;;;;6277256;28;20243;-67
2022/07/27 00:36:42;;;;;;;9.93;7.53;;;21.80;99.90;;;;;;6277391;28;20228;-67
2022/07/27 00:39:45;;;;;;;7.37;6.77;;;21.80;99.90;;;;;;6277063;28;20240;-67
2022/07/27 00:42:50;;;;;;;8.60;7.73;;;21.80;99.90;;;;;;6277209;28;20234;-66
2022/07/27 00:45:53;;;;;;;7.77;7.07;;;21.80;99.90;;;;;;6277142;28;20227;-66
2022/07/27 00:48:56;;;;;;;8.23;7.53;;;21.80;99.90;;;;;;6276812;28;20235;-66
2022/07/27 00:51:59;;;;;;;7.03;6.53;;;21.90;99.90;;;;;;6276825;28;20277;-66
2022/07/27 00:55:03;;;;;;;8.33;7.63;;;21.80;99.90;;;;;;6276749;28;20962;-66
2022/07/27 00:58:08;;;;;;;7.53;6.93;;;21.80;99.90;;;;;;6276564;28;20228;-65
2022/07/27 01:01:11;;;;;;;7.53;6.97;;;21.80;99.90;;;;;;6276856;28;20231;-65
2022/07/27 01:04:14;;;;;;;7.17;6.63;;;21.80;99.90;;;;;;6277069;28;20224;-65
2022/07/27 01:07:18;;;;;;;7.33;6.73;;;21.80;99.90;;;;;;6276766;28;20274;-66
2022/07/27 01:10:22;;;;;;;7.70;7.10;;;21.90;99.90;;;;;;6275901;28;20251;-65
2022/07/27 01:13:26;;;;;;;8.40;7.77;;;22.00;99.90;;;;;;6276651;28;20231;-67
2022/07/27 01:16:29;;;;;;;6.93;6.30;;;22.00;99.90;;;;;;6266976;28;20232;-66
2022/07/27 01:19:34;;;;;;;7.10;6.50;;;22.10;99.90;;;;;;6276386;28;20239;-65
2022/07/27 01:22:39;;;;;;;7.90;7.13;;;22.10;99.90;;;;;;6277007;28;20703;-66
2022/07/27 01:25:43;;;;;;;7.60;7.00;;;22.10;99.90;;;;;;6276734;28;20238;-66
2022/07/27 01:28:47;;;;;;;6.33;5.83;;;22.00;99.90;;;;;;6276066;28;20232;-66
2022/07/27 01:31:50;;;;;;;7.50;6.90;;;22.00;99.90;;;;;;6275852;28;20228;-66
2022/07/27 01:34:53;;;;;;;7.47;6.73;;;22.00;99.90;;;;;;6276002;28;20234;-66
2022/07/27 01:37:58;;;;;;;6.73;6.13;;;21.90;99.90;;;;;;6275473;28;20666;-65
2022/07/27 01:41:01;;;;;;;6.83;6.23;;;21.90;99.90;;;;;;6275733;28;20232;-66
2022/07/27 01:44:05;;;;;;;6.97;6.37;;;21.90;99.90;;;;;;6300248;28;20520;-66
2022/07/27 01:47:08;;;;;;;7.07;6.47;;;21.90;99.90;;;;;;6299803;28;20649;-66
2022/07/27 01:50:16;;;;;;;7.47;6.67;;;22.00;99.90;;;;;;6300140;28;20250;-66
2022/07/27 01:53:21;;;;;;;7.20;6.60;;;21.90;99.90;;;;;;6299493;28;20282;-66
2022/07/27 01:56:25;;;;;;;7.00;6.50;;;21.90;99.90;;;;;;6300116;28;20234;-66
2022/07/27 01:59:28;;;;;;;7.20;6.60;;;21.90;99.90;;;;;;6299444;28;20227;-66
2022/07/27 02:02:32;;;;;;;7.83;7.03;;;21.80;99.90;;;;;;6300101;28;20707;-66
2022/07/27 02:05:36;;;;;;;8.80;6.70;;;21.70;99.90;;;;;;6299535;28;20234;-66
2022/07/27 02:08:41;;;;;;;6.50;6.00;;;21.70;99.90;;;;;;6299790;28;20251;-66
2022/07/27 02:15:06;;;;;;;6.70;6.20;;;21.70;99.90;;;;;;6299753;28;20235;-66
2022/07/27 02:18:10;;;;;;;6.97;6.20;;;21.80;99.90;;;;;;6290602;28;20676;-66
2022/07/27 02:21:33;;;;;;;6.50;6.00;;;21.90;99.90;;;;;;6299696;28;20242;-66
2022/07/27 02:24:38;;;;;;;11.47;6.23;;;21.90;99.90;;;;;;6299498;28;20230;-67
2022/07/27 02:27:42;;;;;;;6.83;6.23;;;21.90;99.90;;;;;;6299645;28;20238;-67
2022/07/27 02:30:46;;;;;;;7.20;6.60;;;21.90;99.90;;;;;;6299303;28;20268;-67
2022/07/27 02:33:49;;;;;;;8.00;6.60;;;21.90;99.90;;;;;;6299450;28;20245;-66
2022/07/27 02:36:52;;;;;;;7.40;6.90;;;21.80;99.90;;;;;;6299660;28;20231;-66
2022/07/27 02:39:56;;;;;;;7.47;6.77;;;21.90;99.90;;;;;;6299396;28;20253;-66
2022/07/27 02:43:00;;;;;;;7.87;7.27;;;21.80;99.90;;;;;;6299260;28;20231;-66
2022/07/27 02:46:03;;;;;;;6.20;5.60;;;21.80;99.90;;;;;;6299838;28;20230;-66
2022/07/27 02:49:07;;;;;;;6.90;6.30;;;21.80;99.90;;;;;;6298876;28;20254;-67
2022/07/27 02:52:10;;;;;;;6.50;5.93;;;21.70;99.90;;;;;;6299555;28;20281;-66
2022/07/27 02:55:15;;;;;;;6.63;6.10;;;21.70;99.90;;;;;;6299137;28;20227;-66
2022/07/27 02:58:18;;;;;;;7.77;7.10;;;21.70;99.90;;;;;;6299050;28;20237;-65
2022/07/27 03:01:21;;;;;;;7.37;6.77;;;21.80;99.90;;;;;;6299197;28;20241;-67
2022/07/27 03:04:25;;;;;;;8.97;6.77;;;21.70;99.90;;;;;;6299194;28;20238;-67
2022/07/27 03:07:28;;;;;;;6.50;5.90;;;21.70;99.90;;;;;;6299219;28;20227;-66
2022/07/27 03:10:33;;;;;;;6.40;5.90;;;21.60;99.90;;;;;;6299282;28;20246;-66
2022/07/27 03:13:36;;;;;;;6.03;5.40;;;21.60;99.90;;;;;;6299258;28;20227;-66
2022/07/27 03:16:39;;;;;;;6.73;6.23;;;21.60;99.90;;;;;;6298890;28;20245;-66
2022/07/27 03:19:42;;;;;;;6.90;6.30;;;21.70;99.90;;;;;;6299025;28;20235;-66
2022/07/27 03:22:45;;;;;;;6.97;6.27;;;21.70;99.90;;;;;;6294409;28;20231;-67
2022/07/27 03:25:49;;;;;;;6.80;6.30;;;21.70;99.90;;;;;;6298792;28;20238;-67
2022/07/27 03:28:53;;;;;;;7.00;6.40;;;21.60;99.90;;;;;;6298536;28;20711;-67
2022/07/27 03:31:56;;;;;;;8.33;7.47;;;21.60;99.90;;;;;;6299887;28;20231;-67
2022/07/27 03:34:59;;;;;;;7.50;6.80;;;21.50;99.90;;;;;;6303961;28;20238;-67
2022/07/27 03:38:02;;;;;;;6.03;5.53;;;21.60;99.90;;;;;;6303519;28;20245;-66
2022/07/27 03:41:07;;;;;;;7.23;6.63;;;21.60;99.90;;;;;;6303005;28;20261;-66
2022/07/27 03:44:10;;;;;;;6.23;5.63;;;21.50;99.90;;;;;;6303251;28;20222;-66
2022/07/27 03:47:13;;;;;;;6.97;6.37;;;21.50;99.90;;;;;;6303365;28;20203;-66
2022/07/27 03:50:16;;;;;;;6.60;6.00;;;21.50;99.90;;;;;;6303032;28;20231;-66
2022/07/27 03:53:20;;;;;;;6.60;6.10;;;21.60;99.90;;;;;;6303192;28;20207;-66
2022/07/27 03:56:25;;;;;;;6.50;6.00;;;21.60;99.90;;;;;;6302722;28;20558;-66
2022/07/27 03:59:28;;;;;;;7.13;6.53;;;21.60;99.90;;;;;;6303178;28;20242;-66
2022/07/27 04:02:31;;;;;;;6.77;6.10;;;21.60;99.90;;;;;;6302989;28;20237;-67
2022/07/27 04:05:35;;;;;;;5.97;5.47;;;21.60;99.90;;;;;;6303271;28;20250;-67
2022/07/27 04:08:38;;;;;;;5.97;5.40;;;21.60;99.90;;;;;;6302672;28;20661;-66
2022/07/27 04:11:43;;;;;;;6.13;5.50;;;21.70;99.90;;;;;;6302738;28;20226;-66
2022/07/27 04:14:53;;;;;;;6.80;6.10;;;21.60;99.90;;;;;;6302620;28;20223;-66
2022/07/27 04:17:56;;;;;;;6.50;5.90;;;21.60;99.90;;;;;;6302569;28;20681;-67
2022/07/27 04:21:02;;;;;;;6.30;5.70;;;21.70;99.90;;;;;;6302609;28;20727;-67
2022/07/27 04:24:06;;;;;;;5.40;4.90;;;21.70;99.90;;;;;;6297511;28;20231;-67
2022/07/27 04:27:10;;;;;;;6.23;5.63;;;21.70;99.90;;;;;;6302374;28;20231;-67
2022/07/27 04:30:14;;;;;;;4.97;4.57;;;21.70;99.90;;;;;;6302046;28;20246;-66
2022/07/27 04:33:17;;;;;;;5.40;4.90;;;21.80;99.90;;;;;;6302545;28;20237;-66
2022/07/27 04:36:20;;;;;;;5.80;5.27;;;22.00;99.90;;;;;;6301565;28;20244;-67
2022/07/27 04:39:23;;;;;;;5.00;4.50;;;22.00;99.90;;;;;;6301649;28;20242;-66
2022/07/27 04:42:28;;;;;;;5.13;4.73;;;22.00;99.90;;;;;;6301649;28;20677;-67
2022/07/27 04:45:33;;;;;;;5.70;4.90;;;22.00;99.90;;;;;;6302071;28;20593;-67
2022/07/27 04:48:36;;;;;;;6.73;5.50;;;21.90;99.90;;;;;;6301633;28;20238;-66
2022/07/27 04:51:44;;;;;;;6.20;5.70;;;21.90;99.90;;;;;;6301840;28;20238;-67
2022/07/27 04:54:51;;;;;;;6.73;6.07;;;22.00;99.90;;;;;;6301814;28;20235;-67
2022/07/27 04:57:55;;;;;;;6.97;6.37;;;22.10;99.90;;;;;;6301854;28;20237;-67
2022/07/27 05:00:59;;;;;;;6.50;5.90;;;22.10;99.90;;;;;;6301528;28;20222;-67
2022/07/27 05:04:02;;;;;;;5.83;5.33;;;22.10;99.90;;;;;;6301562;28;20231;-67
2022/07/27 05:07:06;;;;;;;5.60;5.10;;;22.10;99.90;;;;;;6301685;28;20677;-67
2022/07/27 05:10:09;;;;;;;5.20;4.73;;;22.10;99.90;;;;;;6301257;28;20554;-67
2022/07/27 05:13:18;;;;;;;5.30;4.80;;;22.10;99.90;;;;;;6301330;28;20242;-67
2022/07/27 05:16:21;;;;;;;4.50;4.10;;;22.10;99.90;;;;;;6300791;28;20227;-67
2022/07/27 05:19:31;;;;;;;5.10;4.47;;;22.20;99.90;;;;;;6301017;28;20317;-66
2022/07/27 05:22:42;;;;;;;6.07;4.40;;;22.20;99.90;;;;;;6301032;28;20239;-66
2022/07/27 05:25:45;;;;;;;4.77;4.37;;;22.30;99.90;;;;;;6300798;28;20223;-67
2022/07/27 05:28:50;;;;;;;4.83;4.37;;;22.30;99.90;;;;;;6291691;28;20231;-67
2022/07/27 05:31:53;;;;;;;4.50;4.17;;;22.40;99.90;;;;;;6300894;28;20665;-67
2022/07/27 05:34:56;;;;;;;6.17;4.60;;;22.50;99.90;;;;;;6300215;28;20613;-67
2022/07/27 05:37:59;;;;;;;5.07;4.20;;;22.50;99.90;;;;;;6300199;28;20233;-66
2022/07/27 05:41:03;;;;;;;7.20;4.30;;;22.50;99.90;;;;;;6300505;28;20238;-66
2022/07/27 05:44:08;;;;;;;5.37;4.40;;;22.50;99.90;;;;;;6300815;28;20541;-68
2022/07/27 05:47:11;;;;;;;5.03;4.23;;;22.50;99.90;;;;;;6301300;28;20341;-67
2022/07/27 05:50:15;;;;;;;4.87;4.37;;;22.70;99.90;;;;;;6301655;28;20380;-67
2022/07/27 05:53:18;;;;;;;5.03;4.50;;;22.70;99.90;;;;;;6300605;28;20349;-66
2022/07/27 05:56:22;;;;;;;4.17;3.50;;;22.80;99.90;;;;;;6300096;28;20226;-67
2022/07/27 05:59:26;;;;;;;5.90;5.20;;;22.80;99.90;;;;;;6299740;28;20231;-67
2022/07/27 06:02:30;;;;;;;7.10;4.80;;;22.90;99.90;;;;;;6300739;28;20354;-67
2022/07/27 06:05:33;;;;;;;5.37;4.87;;;22.90;99.90;;;;;;6300406;28;20227;-67
2022/07/27 06:08:35;;;;;;;6.00;4.60;;;23.00;99.90;;;;;;6299807;28;20681;-66
2022/07/27 06:11:38;;;;;;;5.57;4.57;;;23.10;99.90;;;;;;6299846;28;20234;-67
2022/07/27 06:14:43;;;;;;;5.20;4.80;;;23.20;99.80;;;;;;6299979;28;20227;-66
2022/07/27 06:17:53;;;;;;;6.27;5.00;;;23.30;99.50;;;;;;6300069;28;20286;-69
2022/07/27 06:20:56;;;;;;;3.77;3.47;;;23.40;99.20;;;;;;6299631;28;20554;-66
2022/07/27 06:23:59;;;;;;;6.10;4.23;;;23.50;99.30;;;;;;6300310;28;20226;-70
2022/07/27 06:27:03;;;;;;;7.83;4.33;;;23.70;98.90;;;;;;6299647;28;20309;-67
2022/07/27 06:30:09;;;;;;;5.60;5.10;;;23.90;98.70;;;;;;6290282;28;20237;-67
2022/07/27 06:33:12;;;;;;;5.73;4.43;;;23.90;98.40;;;;;;6299405;28;20601;-67
2022/07/27 06:36:16;;;;;;;8.33;5.87;;;23.90;98.20;;;;;;6299466;28;20235;-67
2022/07/27 06:39:19;;;;;;;10.90;5.63;;;24.00;98.10;;;;;;6299152;28;20227;-67
2022/07/27 06:42:23;;;;;;;10.27;6.07;;;24.10;98.10;;;;;;6299648;28;20245;-68
2022/07/27 06:45:27;;;;;;;8.70;6.00;;;24.10;97.90;;;;;;6299219;28;20227;-67
2022/07/27 06:48:31;;;;;;;8.43;5.73;;;24.10;97.80;;;;;;6299447;28;20239;-67
2022/07/27 06:51:34;;;;;;;7.97;5.10;;;24.10;97.90;;;;;;6299879;28;20312;-66
2022/07/27 06:54:39;;;;;;;5.30;4.27;;;24.10;97.80;;;;;;6299664;28;20243;-68
2022/07/27 06:57:42;;;;;;;4.60;4.20;;;24.20;97.80;;;;;;6299611;28;20684;-68
2022/07/27 07:00:47;;;;;;;7.90;5.40;;;24.20;97.80;;;;;;6299524;28;20223;-67
2022/07/27 07:03:50;;;;;;;5.57;4.60;;;24.40;97.70;;;;;;6299366;28;20231;-67
2022/07/27 07:06:53;;;;;;;5.70;5.10;;;24.60;97.50;;;;;;6302059;28;20251;-67
2022/07/27 07:09:56;;;;;;;8.77;5.33;;;24.80;97.10;;;;;;6304503;28;20231;-66
2022/07/27 07:13:04;;;;;;;5.20;4.60;;;25.00;96.90;;;;;;6303586;28;20242;-67
2022/07/27 07:16:08;;;;;;;6.70;4.40;;;25.10;96.30;;;;;;6304278;28;20542;-67
2022/07/27 07:19:12;;;;;;;5.10;4.30;;;25.30;96.10;;;;;;6303958;28;20624;-67
2022/07/27 07:22:16;;;;;;;7.30;4.30;;;25.50;95.80;;;;;;6303462;28;20223;-68
2022/07/27 07:25:19;;;;;;;12.20;3.73;;;25.50;95.10;;;;;;6302869;28;20222;-68
2022/07/27 07:28:22;;;;;;;8.50;4.60;;;25.50;94.90;;;;;;6303176;28;20242;-66
2022/07/27 07:31:27;;;;;;;5.70;4.33;;;25.40;94.70;;;;;;6303557;28;20214;-66
2022/07/27 07:34:30;;;;;;;4.47;4.17;;;25.40;94.90;;;;;;6294278;28;20243;-68
2022/07/27 07:37:33;;;;;;;5.67;5.10;;;25.50;94.90;;;;;;6303235;28;20223;-67
2022/07/27 07:40:37;;;;;;;5.20;4.70;;;25.60;94.80;;;;;;6303366;28;20578;-67
2022/07/27 07:43:46;;;;;;;5.10;4.50;;;25.70;94.80;;;;;;6302138;28;20222;-68
2022/07/27 07:46:50;;;;;;;4.90;4.37;;;25.80;94.70;;;;;;6302250;28;20222;-67
2022/07/27 07:49:54;;;;;;;4.57;4.27;;;26.00;94.30;;;;;;6302135;28;20230;-67
2022/07/27 07:52:57;;;;;;;4.77;4.33;;;26.10;94.20;;;;;;6302019;28;20227;-67
2022/07/27 07:56:01;;;;;;;4.10;3.80;;;26.40;93.80;;;;;;6302232;28;20230;-66
2022/07/27 07:59:04;;;;;;;4.97;4.47;;;26.70;93.60;;;;;;6306632;28;20311;-67
2022/07/27 08:02:09;;;;;;;4.60;4.20;;;27.10;93.00;;;;;;6303372;28;20547;-67
2022/07/27 08:05:13;;;;;;;5.47;5.00;;;27.60;92.30;;;;;;6302490;28;20284;-66
2022/07/27 08:08:17;;;;;;;5.37;4.80;;;28.00;91.20;;;;;;6302421;28;20228;-66
2022/07/27 08:11:23;;;;;;;11.90;4.80;;;28.40;90.10;;;;;;6302556;28;20222;-63
2022/07/27 08:14:26;;;;;;;7.70;4.57;;;28.10;89.10;;;;;;6301700;28;20782;-70
2022/07/27 08:17:31;;;;;;;7.57;4.67;;;28.10;88.80;;;;;;6301819;28;20222;-67
2022/07/27 08:20:34;;;;;;;29.20;7.80;;;27.90;89.40;;;;;;6300421;28;20245;-66
2022/07/27 08:23:37;;;;;;;17.30;6.57;;;27.90;89.50;;;;;;6304864;28;20536;-66
2022/07/27 08:26:41;;;;;;;4.33;3.93;;;27.70;89.70;;;;;;6302375;28;20226;-66
2022/07/27 08:29:44;;;;;;;5.10;4.67;;;27.50;89.90;;;;;;6302158;28;20678;-67
2022/07/27 08:32:57;;;;;;;4.80;4.40;;;27.20;90.60;;;;;;6302202;28;20223;-67
2022/07/27 08:36:01;;;;;;;6.17;4.67;;;26.60;91.40;;;;;;6302013;28;20237;-67
2022/07/27 08:39:07;;;;;;;4.87;4.37;;;26.10;92.30;;;;;;6303261;28;20226;-64
2022/07/27 08:42:11;;;;;;;5.03;4.53;;;25.60;92.90;;;;;;6303626;28;20226;-64
2022/07/27 08:45:16;;;;;;;4.80;4.40;;;25.40;93.90;;;;;;6302600;28;20563;-65
2022/07/27 08:48:21;;;;;;;4.47;4.07;;;25.30;93.90;;;;;;6301935;28;20227;-66
2022/07/27 08:51:25;;;;;;;5.13;4.73;;;25.20;94.30;;;;;;6301449;28;20748;-63
2022/07/27 08:54:28;;;;;;;13.23;5.97;;;25.00;94.80;;;;;;6301904;28;20233;-64
2022/07/27 08:57:32;;;;;;;5.27;4.80;;;25.00;95.20;;;;;;6301522;28;20222;-66
2022/07/27 09:00:37;;;;;;;7.90;4.50;;;25.10;95.50;;;;;;6302620;28;20238;-65
2022/07/27 09:03:42;;;;;;;10.90;4.77;;;25.20;95.70;;;;;;6301183;28;20223;-65
2022/07/27 09:06:47;;;;;;;5.27;4.87;;;25.20;95.70;;;;;;6300935;28;20684;-66
2022/07/27 09:09:56;;;;;;;4.33;3.93;;;25.10;95.90;;;;;;6301145;28;20343;-64
2022/07/27 09:13:00;;;;;;;5.27;4.47;;;25.20;96.10;;;;;;6300813;28;20669;-63
2022/07/27 09:16:06;;;;;;;4.80;4.30;;;25.30;96.00;;;;;;6300910;28;20233;-67
2022/07/27 09:19:26;;;;;;;5.23;4.43;;;25.40;96.00;;;;;;6301420;28;20781;-67
2022/07/27 09:22:43;;;;;;;6.90;4.97;;;25.70;96.00;;;;;;6300604;28;20231;-67
2022/07/27 09:25:47;;;;;;;4.47;4.07;;;26.00;95.60;;;;;;6300593;28;20234;-69
2022/07/27 09:29:12;;;;;;;5.07;4.67;;;26.10;95.30;;;;;;6299743;28;20223;-66
2022/07/27 09:32:16;;;;;;;9.67;5.43;;;26.30;95.00;;;;;;6300945;28;20272;-64
2022/07/27 09:35:23;;;;;;;6.40;4.80;;;26.30;94.90;;;;;;6300658;28;20214;-65
2022/07/27 09:38:26;;;;;;;5.37;4.87;;;26.60;94.60;;;;;;6290849;28;20248;-65
2022/07/27 09:41:40;;;;;;;5.47;4.97;;;26.40;94.50;;;;;;6300241;28;20527;-65
2022/07/27 09:44:44;;;;;;;5.33;4.53;;;26.60;94.50;;;;;;6300855;28;20253;-65
2022/07/27 09:48:10;;;;;;;5.53;4.80;;;27.00;94.10;;;;;;6300199;28;20235;-65
2022/07/27 09:51:15;;;;;;;5.40;4.90;;;27.70;93.00;;;;;;6300320;28;20664;-64
2022/07/27 09:54:43;;;;;;;5.57;5.10;;;28.30;92.10;;;;;;6300513;28;20230;-64
2022/07/27 09:57:53;;;;;;;5.60;5.20;;;29.00;90.90;;;;;;6300029;28;20246;-64
2022/07/27 10:01:06;;;;;;;5.43;4.93;;;29.40;89.90;;;;;;6305205;27;20573;-67
2022/07/27 10:04:09;;;;;;;5.83;5.23;;;29.80;88.10;;;;;;6295951;28;20234;-68
2022/07/27 10:07:13;;;;;;;4.53;4.13;;;29.70;87.00;;;;;;6295930;28;20550;-66
2022/07/27 10:10:17;;;;;;;5.70;5.20;;;29.90;86.70;;;;;;6277424;28;20679;-66
2022/07/27 10:13:20;;;;;;;4.85;4.32;;;30.10;85.70;;;;;;6271564;28;20239;-66
2022/07/27 10:16:26;;;;;;;5.33;4.90;;;30.30;83.00;;;;;;6269875;28;20608;-65
2022/07/27 10:19:39;;;;;;;5.00;4.60;;;29.90;82.00;;;;;;6269324;28;20227;-65
2022/07/27 10:22:53;;;;;;;6.00;4.20;;;29.60;82.20;;;;;;6269551;28;20231;-65
2022/07/27 10:26:26;;;;;;;4.83;4.43;;;29.20;82.30;;;;;;6269262;28;20507;-65
2022/07/27 10:29:30;;;;;;;4.30;4.00;;;29.00;83.10;;;;;;6268848;28;20231;-65
2022/07/27 10:32:35;;;;;;;5.70;5.10;;;28.90;83.80;;;;;;6271001;28;20230;-65
2022/07/27 10:35:39;;;;;;;5.27;4.83;;;28.70;84.30;;;;;;6270262;28;20233;-65
2022/07/27 10:38:47;;;;;;;6.40;5.63;;;28.70;84.00;;;;;;6266006;28;20601;-65
2022/07/27 10:41:50;;;;;;;7.77;5.47;;;28.70;84.20;;;;;;6270378;28;20227;-65
2022/07/27 10:44:59;;;;;;;7.47;5.60;;;28.50;84.60;;;;;;6270549;28;20230;-65
2022/07/27 10:48:03;;;;;;;7.47;5.97;;;28.50;85.40;;;;;;6270683;28;20223;-64
2022/07/27 10:51:08;;;;;;;6.23;5.07;;;29.00;84.20;;;;;;6270466;28;20219;-65
2022/07/27 10:54:21;;;;;;;6.57;5.97;;;29.20;83.10;;;;;;6266032;28;20226;-66
2022/07/27 10:57:26;;;;;;;15.50;8.20;;;29.00;83.10;;;;;;6245449;28;20567;-66
2022/07/27 11:01:02;;;;;;;8.17;6.60;;;29.20;84.40;;;;;;6265906;28;20234;-65
2022/07/27 11:04:10;;;;;;;7.23;6.27;;;29.10;83.20;;;;;;6266840;28;20224;-65
2022/07/27 11:07:17;;;;;;;5.40;4.90;;;29.00;82.50;;;;;;6268404;28;20245;-65
2022/07/27 11:10:29;;;;;;;6.27;5.40;;;28.80;82.50;;;;;;6246810;28;20228;-65
2022/07/27 11:13:33;;;;;;;17.67;7.30;;;28.60;82.80;;;;;;6250819;28;20243;-65
2022/07/27 11:16:41;;;;;;;5.40;5.00;;;28.40;83.00;;;;;;6253769;28;20707;-65
2022/07/27 11:20:00;;;;;;;9.47;6.07;;;28.30;83.70;;;;;;6228482;28;20232;-67
2022/07/27 11:23:18;;;;;;;5.17;4.67;;;28.10;82.50;;;;;;6228384;28;20244;-66
2022/07/27 11:26:46;;;;;;;5.27;4.83;;;27.90;83.00;;;;;;6227959;28;20224;-67
2022/07/27 11:29:49;;;;;;;5.90;5.17;;;27.80;84.10;;;;;;6228202;28;20237;-67
2022/07/27 11:32:52;;;;;;;5.87;5.27;;;27.70;84.70;;;;;;6244458;28;20224;-66
2022/07/27 11:36:00;;;;;;;7.27;5.30;;;27.70;84.90;;;;;;6252624;28;20224;-67
2022/07/27 11:39:05;;;;;;;5.33;4.83;;;27.70;86.10;;;;;;6252270;28;20231;-65
2022/07/27 11:42:10;;;;;;;6.43;5.60;;;27.60;86.30;;;;;;6252514;28;20235;-66
2022/07/27 11:45:28;;;;;;;6.03;4.90;;;27.50;86.20;;;;;;6252293;28;20216;-67
2022/07/27 11:48:31;;;;;;;6.80;5.87;;;27.60;86.30;;;;;;6252057;28;20660;-66
2022/07/27 11:51:58;;;;;;;4.67;4.27;;;27.60;86.70;;;;;;6252257;28;20633;-66
2022/07/27 11:55:01;;;;;;;5.40;4.37;;;27.60;88.50;;;;;;6251931;28;20314;-66
2022/07/27 11:58:04;;;;;;;6.20;5.60;;;27.60;89.20;;;;;;6244738;28;20259;-66
2022/07/27 12:01:08;;;;;;;5.13;4.73;;;27.70;89.10;;;;;;6227900;28;20583;-67
2022/07/27 12:04:17;;;;;;;5.97;5.47;;;27.70;88.80;;;;;;6227551;28;20231;-66
2022/07/27 12:07:29;;;;;;;7.50;5.40;;;27.80;88.60;;;;;;6227575;28;20740;-67
2022/07/27 12:10:32;;;;;;;5.40;4.90;;;27.90;87.80;;;;;;6247283;28;20307;-66
2022/07/27 12:13:39;;;;;;;5.10;4.70;;;28.10;87.10;;;;;;6257024;28;20238;-66
2022/07/27 12:16:43;;;;;;;5.27;4.87;;;28.30;86.80;;;;;;6253963;28;20220;-65
2022/07/27 12:19:55;;;;;;;5.00;4.60;;;28.60;85.90;;;;;;6252028;28;20243;-64
2022/07/27 12:23:05;;;;;;;6.90;5.33;;;28.90;84.80;;;;;;6250318;28;20228;-65
2022/07/27 12:26:17;;;;;;;4.90;4.60;;;29.10;85.00;;;;;;6249320;28;20231;-64
2022/07/27 12:29:20;;;;;;;5.33;4.83;;;29.30;84.70;;;;;;6251587;28;20549;-63
2022/07/27 12:32:24;;;;;;;5.10;4.70;;;29.40;83.50;;;;;;6250910;28;20531;-64
2022/07/27 12:35:29;;;;;;;6.07;5.30;;;29.50;83.50;;;;;;6252012;28;20228;-64
2022/07/27 12:38:43;;;;;;;5.70;5.20;;;29.60;83.60;;;;;;6250712;28;20549;-63
2022/07/27 12:41:46;;;;;;;5.83;5.10;;;29.60;83.50;;;;;;6250942;28;20326;-65
2022/07/27 12:44:52;;;;;;;4.93;4.47;;;29.50;83.40;;;;;;6251227;28;20219;-63
2022/07/27 12:48:05;;;;;;;8.17;5.33;;;29.30;83.30;;;;;;6242331;28;20562;-64
2022/07/27 12:51:10;;;;;;;5.93;5.43;;;29.10;83.30;;;;;;6251248;28;20545;-66
2022/07/27 12:54:15;;;;;;;7.37;4.70;;;28.80;84.70;;;;;;6251339;28;20276;-66
2022/07/27 12:57:18;;;;;;;5.97;5.40;;;28.50;85.40;;;;;;6250028;28;20228;-64
2022/07/27 13:00:42;;;;;;;6.07;5.47;;;28.30;86.40;;;;;;6225553;28;20236;-65
2022/07/27 13:03:45;;;;;;;5.43;5.03;;;28.10;87.40;;;;;;6243519;28;20326;-64
2022/07/27 13:06:48;;;;;;;6.27;4.60;;;28.00;88.30;;;;;;6250092;28;20557;-66
2022/07/27 13:09:53;;;;;;;6.17;5.57;;;27.80;88.60;;;;;;6250619;28;20238;-63
2022/07/27 13:13:06;;;;;;;5.50;5.10;;;27.70;88.20;;;;;;6250505;28;20232;-64
2022/07/27 13:16:09;;;;;;;5.40;4.93;;;27.60;89.30;;;;;;6250749;28;20374;-63
2022/07/27 13:19:13;;;;;;;5.60;5.10;;;27.40;90.00;;;;;;6250257;28;20231;-66
2022/07/27 13:22:17;;;;;;;5.67;5.27;;;27.40;89.80;;;;;;6250090;28;20273;-64
2022/07/27 13:25:22;;;;;;;6.57;5.80;;;27.30;89.60;;;;;;6249921;28;20692;-65
2022/07/27 13:28:25;;;;;;;6.40;5.40;;;27.30;90.10;;;;;;6249419;28;20334;-68
2022/07/27 13:31:29;;;;;;;6.50;5.90;;;27.20;90.30;;;;;;6246862;28;20556;-65
2022/07/27 13:34:32;;;;;;;5.90;5.30;;;27.10;90.50;;;;;;6249525;28;20220;-65
2022/07/27 13:37:35;;;;;;;5.87;5.37;;;27.20;90.40;;;;;;6249208;28;20238;-63
2022/07/27 13:40:40;;;;;;;5.47;4.90;;;27.40;90.20;;;;;;6248920;28;20231;-62
2022/07/27 13:43:43;;;;;;;5.40;5.00;;;27.50;90.10;;;;;;6249784;28;20235;-64
2022/07/27 13:46:47;;;;;;;6.03;5.50;;;27.60;89.10;;;;;;6249229;28;20220;-65
2022/07/27 13:49:50;;;;;;;5.70;5.20;;;27.70;88.60;;;;;;6248994;28;20841;-65
2022/07/27 13:52:53;;;;;;;7.17;5.37;;;27.70;88.40;;;;;;6238064;28;20238;-63
2022/07/27 13:56:00;;;;;;;5.80;5.20;;;27.80;88.50;;;;;;6248653;28;20230;-63
2022/07/27 13:59:05;;;;;;;6.10;5.60;;;27.80;88.50;;;;;;6246045;28;20244;-65
2022/07/27 14:02:08;;;;;;;5.63;5.23;;;27.80;87.60;;;;;;6249806;28;20232;-67
2022/07/27 14:05:13;;;;;;;5.80;5.30;;;27.90;87.70;;;;;;6249705;28;20196;-64
2022/07/27 14:08:22;;;;;;;5.50;5.10;;;27.80;87.10;;;;;;6249577;28;20315;-66
2022/07/27 14:11:26;;;;;;;6.40;5.77;;;27.90;86.80;;;;;;6249165;28;20196;-66
2022/07/27 14:14:29;;;;;;;6.43;5.80;;;27.90;87.20;;;;;;6249730;28;20246;-65
2022/07/27 14:17:32;;;;;;;5.40;5.00;;;28.00;87.00;;;;;;6249867;28;21236;-67
2022/07/27 14:20:36;;;;;;;5.33;4.90;;;28.00;86.90;;;;;;6249344;28;20246;-66
2022/07/27 14:23:40;;;;;;;5.50;5.10;;;28.00;86.80;;;;;;6249542;28;20245;-67
2022/07/27 14:26:46;;;;;;;6.20;5.70;;;28.10;86.00;;;;;;6248193;28;20237;-66
2022/07/27 14:29:49;;;;;;;6.40;5.80;;;28.20;85.70;;;;;;6237757;28;20232;-70
2022/07/27 14:32:52;;;;;;;5.00;4.20;;;28.20;85.80;;;;;;6244255;28;20308;-67
2022/07/27 14:35:56;;;;;;;5.17;4.77;;;28.20;84.40;;;;;;6247878;28;20224;-67
2022/07/27 14:38:59;;;;;;;5.10;4.60;;;28.00;83.90;;;;;;6246464;28;20779;-68
2022/07/27 14:42:03;;;;;;;6.30;4.80;;;27.80;85.80;;;;;;6248547;28;20379;-65
2022/07/27 14:45:08;;;;;;;5.50;5.00;;;27.60;85.40;;;;;;6249766;28;20310;-65
2022/07/27 14:48:11;;;;;;;5.03;4.63;;;27.00;86.60;;;;;;6253495;28;20672;-64
2022/07/27 14:51:23;;;;;;;5.30;4.80;;;26.60;88.10;;;;;;6253913;28;20259;-64
2022/07/27 14:54:26;;;;;;;6.10;5.47;;;26.40;89.40;;;;;;6253247;28;20235;-66
2022/07/27 14:57:30;;;;;;;5.00;4.60;;;26.20;89.70;;;;;;6253157;28;20238;-66
2022/07/27 15:00:34;;;;;;;5.77;5.27;;;26.00;90.20;;;;;;6253425;28;20232;-64
2022/07/27 15:03:40;;;;;;;5.73;5.23;;;25.80;90.20;;;;;;6253663;28;20358;-64
2022/07/27 15:06:43;;;;;;;6.10;5.10;;;25.60;90.40;;;;;;6272380;28;20235;-65
2022/07/27 15:09:46;;;;;;;5.20;4.70;;;25.50;90.60;;;;;;6277761;28;20246;-65
2022/07/27 15:12:51;;;;;;;4.50;4.07;;;25.40;91.00;;;;;;6277761;28;20235;-65
2022/07/27 15:15:56;;;;;;;6.80;5.17;;;25.10;91.90;;;;;;6272362;28;20307;-65
2022/07/27 15:18:59;;;;;;;5.63;5.03;;;24.90;92.40;;;;;;6251533;28;20231;-65
2022/07/27 15:22:02;;;;;;;6.70;4.83;;;24.70;93.10;;;;;;6252068;28;20559;-64
2022/07/27 15:25:07;;;;;;;6.73;5.80;;;24.60;93.20;;;;;;6252593;28;20220;-64
2022/07/27 15:28:15;;;;;;;5.93;5.43;;;24.40;93.50;;;;;;6252387;28;20853;-65
2022/07/27 15:31:19;;;;;;;6.00;4.97;;;24.20;93.60;;;;;;6252844;28;20224;-64
2022/07/27 15:34:22;;;;;;;5.40;5.00;;;24.10;94.20;;;;;;6252524;28;20224;-64
2022/07/27 15:37:25;;;;;;;5.93;5.37;;;23.90;94.70;;;;;;6252868;28;20236;-65
2022/07/27 15:40:37;;;;;;;5.00;4.60;;;23.70;94.90;;;;;;6252217;28;20243;-66
2022/07/27 15:43:42;;;;;;;5.57;5.07;;;23.60;95.20;;;;;;6252493;28;20712;-65
2022/07/27 15:46:45;;;;;;;5.83;5.33;;;23.40;96.00;;;;;;6252155;28;20247;-65
2022/07/27 15:49:48;;;;;;;7.07;6.37;;;23.40;96.40;;;;;;6252467;28;20335;-66
2022/07/27 15:52:51;;;;;;;5.77;5.33;;;23.40;97.40;;;;;;6252266;28;20225;-66
2022/07/27 15:55:55;;;;;;;5.80;5.20;;;23.50;97.70;;;;;;6247580;28;20244;-66
2022/07/27 15:58:59;;;;;;;6.03;5.37;;;23.50;97.30;;;;;;6252307;28;20237;-66
2022/07/27 16:02:04;;;;;;;6.70;5.60;;;23.50;97.70;;;;;;6255219;28;20564;-65
2022/07/27 16:05:07;;;;;;;5.97;5.47;;;23.40;97.90;;;;;;6253122;28;20225;-64